This is the latest recevied weather packets stored in our database for station/object WMKK. If no packets are shown the sender has not sent any weather packets the latest 10 day(s).
| Time | Temp. | Humidity | Pressure | Rain* | Wind** | Luminosity | Snow |
|---|---|---|---|---|---|---|---|
| 1778051430 | 31.67° C | 66% | 1006 hPa | - | - | - | - |
| 1778050207 | 32.78° C | 62% | 1006 hPa | - | - | - | - |
| 1778049607 | 32.78° C | 62% | 1006 hPa | - | - | - | - |
| 1778047822 | 32.78° C | 62% | 1006 hPa | - | - | - | - |
| 1778046004 | 31.67° C | 66% | 1007 hPa | - | - | - | - |
| 1778044222 | 31.67° C | 66% | 1007 hPa | - | - | - | - |
| 1778042404 | 31.67° C | 66% | 1008 hPa | - | - | - | - |
| 1778040623 | 31.67° C | 70% | 1008 hPa | - | - | - | - |
| 1778038804 | 31.67° C | 70% | 1008 hPa | - | - | - | - |
| 1778037028 | 30.56° C | 74% | 1009 hPa | - | - | - | - |
| 1778035207 | 30° C | 79% | 1009 hPa | - | - | - | - |
| 1778033422 | 28.89° C | 79% | 1009 hPa | - | - | - | - |
| 1778031604 | 27.78° C | 83% | 1009 hPa | - | - | - | - |
| 1778029823 | 27.78° C | 83% | 1009 hPa | - | - | - | - |
| 1778028004 | 26.67° C | 88% | 1008 hPa | - | - | - | - |
| 1778026224 | 26.67° C | 88% | 1008 hPa | - | - | - | - |
| 1778024404 | 26.67° C | 88% | 1007 hPa | - | - | - | - |
| 1778022621 | 26.67° C | 88% | 1007 hPa | - | - | - | - |
| 1778020811 | 25.56° C | 94% | 1007 hPa | - | - | - | - |
| 1778019031 | 25.56° C | 94% | 1006 hPa | - | - | - | - |
| 1778017203 | 26.67° C | 88% | 1006 hPa | - | - | - | - |
| 1778015422 | 26.67° C | 88% | 1006 hPa | - | - | - | - |
| 1778013607 | 26.67° C | 88% | 1006 hPa | - | - | - | - |
| 1778011822 | 26.67° C | 88% | 1006 hPa | - | - | - | - |
| 1778010003 | 26.67° C | 88% | 1007 hPa | - | - | - | - |
* Rain since midnight (hover to see other rain measurements)
** Current wind speed in m/s (hover to see current wind gust speed)